Data for 04/02/2008

Time Sea-Level Adjusted Pressure Absolute Pressure Temperature Relative Humidity Dew Point   
(mb) (inHg) (mb) (inHg) (C) (F) (%) (C) (F)
00:05 1018 30.06 847 25.01 -3 26.7 66 -8.4 16.9
00:10 1018 30.06 847 25.01 -3.1 26.4 66 -8.6 16.4
00:15 1018 30.06 847 25.01 -3 26.6 65 -8.7 16.4
00:20 1018 30.06 847 25.01 -2.8 26.9 65 -8.6 16.5
00:25 1018 30.06 847 25.01 -2.8 27 64 -8.6 16.5
00:30 1018 30.06 847 25.01 -2.9 26.8 65 -8.6 16.4
00:35 1018 30.06 847 25.01 -3.1 26.5 65 -8.6 16.4
00:40 1018 30.06 847 25.01 -3.1 26.3 66 -8.7 16.3
00:45 1018 30.06 847 25.01 -3.2 26.2 66 -8.7 16.3
00:50 1018 30.06 847 25.01 -3.7 25.3 67 -8.9 15.9
00:55 1018 30.06 847 25.01 -4 24.8 67 -9.2 15.5
01:00 1018 30.06 847 25.01 -4.1 24.7 67 -9.3 15.3
01:05 1018 30.06 847 25.01 -4.3 24.3 68 -9.4 15.1
01:10 1018 30.06 847 25.01 -4.3 24.3 68 -9.3 15.2
01:15 1018 30.06 847 25.01 -4.3 24.3 69 -9.1 15.5
01:20 1017 30.03 847 25.01 -4.3 24.3 70 -9 15.7
01:25 1017 30.03 847 25.01 -4.2 24.4 69 -9.1 15.7
01:30 1017 30.03 847 25.01 -4.3 24.2 70 -9.1 15.7
01:35 1017 30.03 847 25.01 -4.6 23.7 70 -9.3 15.2
01:40 1017 30.03 847 25.01 -4.7 23.5 70 -9.5 14.9
01:45 1017 30.03 846 24.98 -4.8 23.3 69 -9.6 14.7
01:50 1017 30.03 846 24.98 -4.9 23.2 70 -9.6 14.8
01:55 1017 30.03 846 24.98 -5 23 69 -9.8 14.4
02:00 1017 30.03 846 24.98 -5.1 22.8 69 -9.9 14.2
02:05 1017 30.03 846 24.98 -5.1 22.8 68 -10.1 13.8
02:10 1017 30.03 846 24.98 -5.1 22.8 68 -10.2 13.6
02:15 1017 30.03 846 24.98 -5.3 22.4 67 -10.4 13.2
02:20 1017 30.03 846 24.98 -5.6 21.9 68 -10.6 12.9
02:25 1017 30.03 846 24.98 -5.8 21.5 69 -10.7 12.8
02:30 1017 30.03 846 24.98 -5.9 21.4 69 -10.6 12.9
02:35 1017 30.03 846 24.98 -5.8 21.5 69 -10.6 12.9
02:40 1017 30.03 846 24.98 -5.8 21.5 69 -10.6 12.9
02:45 1017 30.03 846 24.98 -6 21.3 69 -10.7 12.7
02:50 1017 30.03 846 24.98 -6.2 20.8 70 -10.9 12.4
02:55 1017 30.03 846 24.98 -6.3 20.6 70 -11 12.2
03:00 1017 30.03 846 24.98 -6.6 20.2 70 -11.1 11.9
03:05 1017 30.03 846 24.98 -6.7 20 70 -11.2 11.8
03:10 1017 30.03 846 24.98 -6.7 19.9 70 -11.3 11.7
03:15 1017 30.03 846 24.98 -6.7 20 70 -11.3 11.7
03:20 1017 30.03 846 24.98 -6.8 19.8 70 -11.4 11.5
03:25 1017 30.03 846 24.98 -7.1 19.2 71 -11.5 11.3
03:30 1017 30.03 846 24.98 -7.2 19 72 -11.5 11.2
03:35 1017 30.03 846 24.98 -7.2 19.1 71 -11.6 11.2
03:40 1017 30.03 846 24.98 -7.1 19.3 71 -11.5 11.3
03:45 1017 30.03 846 24.98 -6.9 19.6 69 -11.6 11.2
03:50 1017 30.03 846 24.98 -6.8 19.8 69 -11.5 11.3
03:55 1017 30.03 846 24.98 -6.9 19.6 69 -11.6 11.1
04:00 1017 30.03 846 24.98 -6.9 19.5 69 -11.7 10.9
04:05 1017 30.03 846 24.98 -6.8 19.7 68 -11.7 10.9
04:10 1017 30.03 846 24.98 -6.8 19.8 68 -11.8 10.8
04:15 1017 30.03 846 24.98 -6.8 19.7 68 -11.8 10.8
04:20 1017 30.03 846 24.98 -7 19.4 68 -11.9 10.6
04:25 1017 30.03 846 24.98 -7 19.4 68 -11.9 10.7
04:30 1017 30.03 846 24.98 -7.2 19 69 -11.9 10.5
04:35 1016 30 846 24.98 -7.5 18.6 70 -12 10.3
04:40 1016 30 846 24.98 -7.6 18.4 70 -12 10.3
04:45 1016 30 846 24.98 -7.6 18.3 71 -12 10.3
04:50 1016 30 846 24.98 -7.6 18.3 71 -12 10.3
04:55 1016 30 846 24.98 -7.7 18.2 71 -12 10.3
05:00 1016 30 846 24.98 -7.6 18.3 71 -12 10.4
05:05 1016 30 846 24.98 -7.6 18.2 71 -12.1 10.2
05:10 1016 30 846 24.98 -7.8 18 71 -12.2 10
05:15 1016 30 846 24.98 -7.9 17.9 71 -12.2 10
05:20 1016 30 846 24.98 -7.9 17.7 71 -12.2 10
05:25 1016 30 846 24.98 -7.9 17.8 71 -12.2 10
05:30 1016 30 846 24.98 -7.9 17.7 71 -12.2 10
05:35 1016 30 846 24.98 -7.9 17.8 71 -12.2 10
05:40 1016 30 846 24.98 -7.9 17.8 71 -12.2 10
05:45 1016 30 846 24.98 -7.9 17.8 71 -12.3 9.9
05:50 1016 30 846 24.98 -7.9 17.8 71 -12.3 9.9
05:55 1016 30 846 24.98 -7.9 17.8 71 -12.3 9.9
06:00 1016 30 845 24.95 -7.9 17.8 71 -12.3 9.9
06:05 1016 30 845 24.95 -8.1 17.5 71 -12.4 9.7
06:10 1016 30 845 24.95 -8.3 17.2 72 -12.4 9.6
06:15 1016 30 845 24.95 -8.2 17.2 73 -12.3 9.8
06:20 1016 30 845 24.95 -8.1 17.5 72 -12.2 10
06:25 1016 30 845 24.95 -7.9 17.8 72 -12.2 10.1
06:30 1016 30 845 24.95 -7.7 18.1 71 -12.1 10.2
06:35 1016 30 845 24.95 -7.6 18.2 70 -12.1 10.2
06:40 1016 30 845 24.95 -7.9 17.8 71 -12.3 9.9
06:45 1016 30 845 24.95 -7.8 18 70 -12.3 9.9
06:50 1016 30 845 24.95 -7.8 17.9 71 -12.3 9.9
06:55 1016 30 845 24.95 -7.9 17.7 70 -12.5 9.5
07:00 1016 30 845 24.95 -8.2 17.3 72 -12.5 9.6
07:05 1016 30 846 24.98 -8.1 17.4 71 -12.5 9.5
07:10 1016 30 846 24.98 -8.5 16.6 72 -12.6 9.2
07:15 1016 30 846 24.98 -8.6 16.6 73 -12.6 9.3
07:20 1016 30 846 24.98 -8.7 16.3 73 -12.7 9.1
07:25 1016 30 846 24.98 -8.9 16 74 -12.7 9.1
07:30 1016 30 846 24.98 -8.9 16 75 -12.6 9.3
07:35 1016 30 846 24.98 -8.7 16.4 75 -12.4 9.7
07:40 1016 30 846 24.98 -8.3 17.1 73 -12.2 10
07:45 1016 30 846 24.98 -8.1 17.4 74 -12 10.3
07:50 1016 30 846 24.98 -7.8 17.9 73 -11.9 10.5
07:55 1016 30 846 24.98 -7.7 18.1 72 -11.9 10.7
08:00 1016 30 846 24.98 -7.5 18.5 72 -11.7 10.9
08:05 1016 30 846 24.98 -7.2 19 71 -11.7 11
08:10 1017 30.03 846 24.98 -7.1 19.1 71 -11.6 11.1
08:15 1017 30.03 846 24.98 -6.8 19.7 70 -11.5 11.3
08:20 1017 30.03 846 24.98 -6.6 20.1 68 -11.5 11.2
08:25 1017 30.03 846 24.98 -6.8 19.8 69 -11.5 11.2
08:30 1017 30.03 846 24.98 -6.4 20.4 68 -11.4 11.5
08:35 1017 30.03 846 24.98 -5.9 21.4 66 -11.2 11.9
08:40 1017 30.03 846 24.98 -5.5 22 66 -11 12.2
08:45 1017 30.03 846 24.98 -5.2 22.7 65 -10.8 12.5
08:50 1017 30.03 846 24.98 -4.9 23.2 63 -10.8 12.5
08:55 1017 30.03 846 24.98 -4.6 23.7 62 -10.9 12.3
09:00 1017 30.03 846 24.98 -4.7 23.5 62 -10.9 12.3
09:05 1016 30 846 24.98 -4.5 23.8 62 -10.7 12.7
09:10 1016 30 846 24.98 -4 24.7 61 -10.5 13
09:15 1016 30 846 24.98 -3.4 25.9 59 -10.3 13.5
09:20 1016 30 846 24.98 -2.9 26.8 58 -10.1 13.8
09:25 1016 30 846 24.98 -2.5 27.6 56 -10.1 13.9
09:30 1016 30 846 24.98 -2.4 27.7 55 -10.2 13.7
09:35 1016 30 846 24.98 -2 28.4 54 -10.1 13.8
09:40 1016 30 846 24.98 -1.7 29 52 -10.4 13.3
09:45 1016 30 845 24.95 -1.6 29.1 53 -9.9 14.1
09:50 1016 30 845 24.95 -1.7 29 53 -10.1 13.8
09:55 1016 30 845 24.95 -1.2 29.9 51 -10.1 13.8
10:00 1016 30 845 24.95 -1.3 29.6 50 -10.4 13.2
10:05 1016 30 845 24.95 -1.3 29.7 51 -10.1 13.7
10:10 1016 30 846 24.98 -0.6 30.9 49 -10.2 13.7
10:15 1016 30 846 24.98 -0.5 31.1 48 -10.1 13.8
10:20 1016 30 845 24.95 -0.2 31.7 46 -10.6 12.9
10:25 1016 30 845 24.95 -0.4 31.4 45 -11 12.2
10:30 1016 30 845 24.95 -0.4 31.2 45 -11 12.3
10:35 1016 30 845 24.95 -0.2 31.6 45 -10.9 12.4
10:40 1016 30 845 24.95 -0.4 31.4 44 -11.2 11.9
10:45 1016 30 846 24.98 -0.9 30.4 46 -11 12.2
10:50 1016 30 846 24.98 -0.8 30.5 47 -10.8 12.6
10:55 1016 30 846 24.98 -0.7 30.7 47 -10.7 12.7
11:00 1016 30 846 24.98 -0.6 31 47 -10.6 12.9
11:05 1016 30 846 24.98 -0.3 31.4 48 -10 14
11:10 1016 30 846 24.98 0.2 32.3 46 -10.2 13.6
11:15 1016 30 846 24.98 -0.6 30.9 50 -9.8 14.4
11:20 1016 30 846 24.98 -0.6 31 52 -9.3 15.2
11:25 1017 30.03 846 24.98 0.1 32.3 48 -9.6 14.6
11:30 1017 30.03 846 24.98 0.9 33.6 46 -9.5 14.9
11:35 1017 30.03 846 24.98 0.9 33.6 47 -9.3 15.3
11:40 1017 30.03 846 24.98 1.3 34.3 46 -9.2 15.4
11:45 1017 30.03 846 24.98 1.6 34.8 44 -9.4 15.2
11:50 1017 30.03 846 24.98 1 33.8 46 -9.3 15.2
11:55 1017 30.03 846 24.98 0.2 32.3 48 -9.5 14.9
12:00 1017 30.03 846 24.98 1.1 33.9 46 -9.2 15.5
12:05 1017 30.03 846 24.98 1.3 34.3 47 -8.9 16
12:10 1017 30.03 846 24.98 1 33.8 48 -8.8 16.1
12:15 1017 30.03 846 24.98 1.4 34.6 46 -9.1 15.6
12:20 1017 30.03 846 24.98 2.2 36 44 -8.9 15.9
12:25 1017 30.03 846 24.98 2.2 35.9 43 -9.2 15.5
12:30 1017 30.03 846 24.98 0.6 33 48 -9.1 15.6
12:35 1017 30.03 846 24.98 0.5 32.8 49 -9.1 15.7
12:40 1017 30.03 846 24.98 1.4 34.5 46 -9.1 15.6
12:45 1016 30 846 24.98 2 35.6 44 -9 15.7
12:50 1016 30 846 24.98 1.6 34.9 46 -8.8 16.1
12:55 1016 30 846 24.98 1.9 35.4 43 -9.4 15.2
13:00 1016 30 846 24.98 1.2 34.1 47 -9 15.7
13:05 1016 30 846 24.98 1.4 34.4 46 -9 15.9
13:10 1016 30 846 24.98 1.6 34.9 44 -9.4 15.1
13:15 1016 30 846 24.98 2.1 35.8 43 -9.1 15.6
13:20 1016 30 845 24.95 2.5 36.6 41 -9.3 15.2
13:25 1016 30 845 24.95 2.5 36.5 41 -9.4 15.1
13:30 1016 30 845 24.95 2.7 36.8 42 -9.1 15.6
13:35 1016 30 845 24.95 3.1 37.5 41 -8.9 16
13:40 1016 30 845 24.95 2.9 37.3 42 -8.8 16.2
13:45 1016 30 845 24.95 2.7 36.9 42 -8.9 16
13:50 1016 30 845 24.95 2.5 36.5 44 -8.6 16.5
13:55 1016 30 845 24.95 2.4 36.3 46 -8 17.6
14:00 1016 30 845 24.95 1.6 34.9 49 -7.9 17.8
14:05 1016 30 845 24.95 0.8 33.4 50 -8.4 16.9
14:10 1016 30 845 24.95 0.8 33.4 50 -8.4 16.8
14:15 1016 30 845 24.95 0 32 53 -8.5 16.7
14:20 1016 30 845 24.95 0.5 32.9 52 -8.2 17.3
14:25 1016 30 845 24.95 0.9 33.6 52 -8 17.7
14:30 1016 30 845 24.95 1.4 34.6 49 -8.1 17.4
14:35 1016 30 845 24.95 1 33.8 49 -8.5 16.6
14:40 1016 30 845 24.95 0.9 33.6 50 -8.5 16.7
14:45 1016 30 845 24.95 1.1 34 49 -8.5 16.8
14:50 1016 30 845 24.95 1.5 34.6 48 -8.4 16.8
14:55 1016 30 845 24.95 1.5 34.7 47 -8.6 16.5
15:00 1015 29.97 845 24.95 1.4 34.6 47 -8.7 16.4
15:05 1015 29.97 845 24.95 1.7 35 48 -8.1 17.4
15:10 1015 29.97 845 24.95 1.7 35 49 -8 17.5
15:15 1015 29.97 845 24.95 1.4 34.4 49 -8.3 17
15:20 1015 29.97 845 24.95 2 35.5 45 -8.7 16.4
15:25 1015 29.97 844 24.92 2.6 36.7 43 -8.7 16.4
15:30 1015 29.97 844 24.92 2.6 36.7 45 -8.3 17.1
15:35 1015 29.97 844 24.92 2.3 36.1 45 -8.4 16.9
15:40 1015 29.97 844 24.92 2.6 36.6 44 -8.6 16.6
15:45 1015 29.97 844 24.92 2 35.7 46 -8.5 16.7
15:50 1015 29.97 844 24.92 2.8 37 44 -8.2 17.2
15:55 1015 29.97 844 24.92 3.5 38.2 41 -8.5 16.7
16:00 1015 29.97 844 24.92 4 39.1 39 -8.7 16.3
16:05 1015 29.97 844 24.92 4.4 39.9 37 -8.9 15.9
16:10 1015 29.97 844 24.92 4.8 40.7 36 -9.2 15.4
16:15 1015 29.97 844 24.92 4.1 39.4 35 -10 14
16:20 1015 29.97 844 24.92 4.1 39.3 37 -9.3 15.3
16:25 1015 29.97 844 24.92 4.4 39.9 37 -8.9 15.9
16:30 1015 29.97 844 24.92 4.6 40.3 36 -9.3 15.3
16:35 1015 29.97 844 24.92 4.5 40 37 -9 15.8
16:40 1015 29.97 844 24.92 4.4 39.9 37 -9.1 15.6
16:45 1015 29.97 844 24.92 4.8 40.6 35 -9.3 15.2
16:50 1015 29.97 844 24.92 5 41 35 -9.3 15.3
16:55 1015 29.97 844 24.92 4.8 40.6 35 -9.5 14.9
17:00 1015 29.97 844 24.92 4.5 40.2 35 -9.5 14.8
17:05 1015 29.97 844 24.92 4.7 40.4 36 -9.1 15.7
17:10 1015 29.97 844 24.92 5.1 41.2 34 -9.4 15.1
17:15 1015 29.97 844 24.92 5.3 41.5 35 -9 15.7
17:20 1015 29.97 844 24.92 5.4 41.7 34 -9.2 15.4
17:25 1015 29.97 844 24.92 5.6 42 33 -9.5 14.9
17:30 1015 29.97 844 24.92 5.4 41.7 34 -9.3 15.3
17:35 1015 29.97 844 24.92 4.6 40.2 37 -9 15.8
17:40 1015 29.97 844 24.92 4.1 39.4 38 -8.8 16.1
17:45 1015 29.97 844 24.92 3.7 38.6 39 -8.9 16
17:50 1015 29.97 844 24.92 3.7 38.7 39 -9.1 15.6
17:55 1015 29.97 844 24.92 3.7 38.6 38 -9.5 14.9
18:00 1015 29.97 844 24.92 3.6 38.5 37 -9.8 14.4
18:05 1015 29.97 844 24.92 3.8 38.8 37 -9.7 14.5
18:10 1015 29.97 844 24.92 3.7 38.6 37 -9.9 14.3
18:15 1015 29.97 844 24.92 3.6 38.4 36 -10.2 13.7
18:20 1015 29.97 844 24.92 3.5 38.4 37 -10 14
18:25 1015 29.97 845 24.95 3.6 38.4 38 -9.3 15.2
18:30 1015 29.97 845 24.95 3.5 38.3 38 -9.7 14.6
18:35 1015 29.97 845 24.95 3.2 37.8 40 -9.3 15.3
18:40 1015 29.97 845 24.95 2.7 36.9 42 -9 15.8
18:45 1016 30 845 24.95 2.4 36.4 43 -9.1 15.7
18:50 1015 29.97 845 24.95 2.5 36.4 40 -9.7 14.6
18:55 1016 30 845 24.95 2.6 36.7 40 -9.6 14.7
19:00 1016 30 845 24.95 2.7 36.8 40 -9.5 14.9
19:05 1016 30 845 24.95 2.8 37 40 -9.5 14.9
19:10 1016 30 845 24.95 3 37.4 40 -9.3 15.3
19:15 1016 30 845 24.95 2.9 37.2 41 -9.1 15.6
19:20 1016 30 845 24.95 2.8 37.1 41 -9.2 15.5
19:25 1016 30 845 24.95 2.9 37.2 41 -9.1 15.6
19:30 1016 30 845 24.95 2.7 36.9 42 -8.9 16
19:35 1016 30 845 24.95 2.5 36.5 44 -8.6 16.6
19:40 1016 30 845 24.95 2.4 36.3 45 -8.3 17.1
19:45 1016 30 845 24.95 2.2 36 46 -8.1 17.4
19:50 1016 30 845 24.95 2.1 35.7 46 -8.2 17.2
19:55 1016 30 845 24.95 1.9 35.4 47 -8.2 17.2
20:00 1016 30 845 24.95 1.8 35.2 48 -8 17.5
20:05 1016 30 845 24.95 1.7 35 48 -8.1 17.5
20:10 1016 30 845 24.95 1.6 34.9 49 -8.1 17.4
20:15 1016 30 845 24.95 1.6 34.8 50 -7.9 17.8
20:20 1016 30 845 24.95 1.4 34.6 52 -7.4 18.7
20:25 1016 30 845 24.95 1.4 34.5 54 -7 19.4
20:30 1016 30 845 24.95 1.3 34.3 55 -6.7 19.9
20:35 1016 30 846 24.98 1.1 34 56 -6.7 19.9
20:40 1016 30 846 24.98 0.8 33.4 58 -6.7 20
20:45 1016 30 846 24.98 0.7 33.2 58 -6.7 20
20:50 1017 30.03 846 24.98 0.7 33.3 58 -6.6 20.2
20:55 1017 30.03 846 24.98 0.6 33.1 59 -6.5 20.3
21:00 1017 30.03 846 24.98 0.6 33 60 -6.4 20.5
21:05 1017 30.03 846 24.98 0.5 32.9 60 -6.4 20.5
21:10 1017 30.03 846 24.98 0.4 32.7 60 -6.4 20.5
21:15 1017 30.03 846 24.98 0.3 32.6 61 -6.3 20.6
21:20 1017 30.03 846 24.98 0.3 32.5 61 -6.3 20.6
21:25 1017 30.03 846 24.98 0.3 32.5 61 -6.3 20.6
21:30 1017 30.03 846 24.98 0.4 32.7 61 -6.2 20.8
21:35 1017 30.03 846 24.98 0.2 32.3 63 -6.1 21.1
21:40 1017 30.03 846 24.98 -0.9 30.4 66 -6.5 20.3
21:45 1017 30.03 846 24.98 -1.3 29.7 68 -6.5 20.4
21:50 1017 30.03 847 25.01 -1.2 29.8 68 -6.4 20.4
21:55 1017 30.03 847 25.01 -1 30.2 68 -6.2 20.9
22:00 1017 30.03 847 25.01 -0.8 30.6 67 -6.1 21.1
22:05 1017 30.03 847 25.01 -0.7 30.7 67 -6.1 21
22:10 1017 30.03 847 25.01 -0.8 30.5 68 -6 21.2
22:15 1017 30.03 847 25.01 -0.7 30.7 66 -6.2 20.9
22:20 1017 30.03 847 25.01 -0.4 31.3 66 -5.9 21.3
22:25 1018 30.06 847 25.01 -0.1 31.7 66 -5.8 21.6
22:30 1018 30.06 847 25.01 -0.1 31.9 66 -5.6 21.9
22:35 1018 30.06 847 25.01 -0.2 31.6 67 -5.5 22.1
22:40 1018 30.06 847 25.01 -0.3 31.5 68 -5.5 22.2
22:45 1018 30.06 847 25.01 -0.3 31.4 69 -5.3 22.5
22:50 1018 30.06 847 25.01 -0.4 31.3 69 -5.3 22.4
22:55 1018 30.06 847 25.01 -0.3 31.5 69 -5.3 22.4
23:00 1018 30.06 847 25.01 -0.6 30.9 71 -5.1 22.8
23:05 1018 30.06 847 25.01 -0.9 30.4 73 -5.1 22.9
23:10 1018 30.06 847 25.01 -1.1 30 76 -4.9 23.2
23:15 1018 30.06 847 25.01 -1.4 29.5 78 -4.7 23.6
23:20 1018 30.06 847 25.01 -1.7 29 83 -4.3 24.3
23:25 1018 30.06 847 25.01 -1.8 28.7 85 -4 24.8
23:30 1018 30.06 847 25.01 -1.9 28.7 86 -3.8 25.1
23:35 1018 30.06 847 25.01 -1.9 28.6 88 -3.7 25.4
23:40 1018 30.06 847 25.01 -2.1 28.3 89 -3.6 25.5
23:45 1018 30.06 847 25.01 -2.2 28.1 90 -3.6 25.6
23:50 1018 30.06 847 25.01 -2.2 28 91 -3.6 25.6
23:55 1018 30.06 847 25.01 -2.3 27.9 91 -3.6 25.6
24:00 1018 30.06 847 25.01 -2.3 27.9 91 -3.6 25.5